Leadville, CO (80429)

4:04 AM MDT on August 31, 2015 (GMT -0600)
Lake County | | Change Station
CLOSE
Current Station
Airport
Location: Leadville,
Elevation: 9928 ft
Nearby Weather Stations

Elev 9928 ft 39.23 °N, 106.32 °W | Updated 1 hour ago

Overcast
Overcast
49 °F
Feels Like 49 °F
N
5
Wind Variable Wind from North

Today
High -- | Low -- °F
--% Chance of Precip.
Yesterday
High -- | Low -- °F
Precip. -- in
6:32 AM 7:37 PM
Waning Gibbous, 96% visible
Pressure 29.87 in
Visibility 10.0 miles
Clouds Overcast 5500 ft
Dew Point 45 °F
Humidity 86%
Rainfall 0.00 in
Snow Depth Not available.
UV 0 out of 12
Pollen 10.60 out of 12
Air Quality Not available.
Flu Activity Not available.
METAR KLXV 310853Z AUTO 35004KT 10SM OVC055 09/07 A3042 RMK AO2 SLP114 60000 T00940072 58003
Pressure 29.87 in
Visibility 10.0 miles
Clouds Overcast 5500 ft
Dew Point 45 °F
Humidity 86%
Rainfall 0.00 in
Snow Depth Not available.
UV 0 out of 12
Pollen 10.60 out of 12
Air Quality Not available.
Flu Activity Not available.
METAR KLXV 310853Z AUTO 35004KT 10SM OVC055 09/07 A3042 RMK AO2 SLP114 60000 T00940072 58003

10-Day Weather Forecast

×

Almanac

Astronomy

Aug. 31, 2015 Rise Set
Actual Time
Civil Twilight
Nautical Twilight
Astronomical Twilight
Moon
Length of Visible Light
Length of Day
Tomorrow will be .
, % of the Moon is Illuminated

Today's Extremes

State Highs State Lows

Community

WunderPhotos

Upload Photos

1,851,229 photos uploaded!

WunderBlogs® & News

Nearby

Air Quality

  Air Quality AQ Index Pollutant
Not available.

Snow Depth

Station Depth Elevation

Earthquake Activity

City Distance Mag. Time & Date
Minimum magnitude displayed is 2.5.

Coastal Water Temperatures

Place Temperature

Stations

Nearby Weather Stations

Station Location Temp. Windchill Dew Point Humidity Wind Precip. Elev Updated Type